Time;durP1;ratioP1;P1;durP2;ratioP2;P2;SDS_P1;SDS_P2;PMS_P1;PMS_P2;Temp;Humidity;BMP_temperature;BMP_pressure;BME280_temperature;BME280_humidity;BME280_pressure;Samples;Min_cycle;Max_cycle;Signal;HPM_P1;HPM_P2
2021/01/15 00:00:25;;;;;;;;;;;;;;;8.00;46.82;101953.91;4757908;30;19934;-74
2021/01/15 00:02:52;;;;;;;;;;;;;;;8.00;46.88;101959.16;4763418;30;19930;-74
2021/01/15 00:05:19;;;;;;;;;;;;;;;7.98;47.23;101967.06;4766715;30;20015;-75
2021/01/15 00:07:46;;;;;;;;;;;;;;;7.98;47.35;101963.53;4764318;30;19944;-74
2021/01/15 00:10:12;;;;;;;;;;;;;;;7.95;47.15;101958.28;4761318;30;19979;-74
2021/01/15 00:12:39;;;;;;;;;;;;;;;7.94;47.68;101953.88;4762277;30;19953;-74
2021/01/15 00:15:08;;;;;;;;;;;;;;;7.92;47.52;101958.28;4760965;30;19934;-75
2021/01/15 00:17:35;;;;;;;;;;;;;;;7.90;47.29;101960.88;4767171;30;19953;-74
2021/01/15 00:20:03;;;;;;;;;;;;;;;7.89;47.99;101960.88;4770960;30;19934;-74
2021/01/15 00:22:30;;;;;;;;;;;;;;;7.86;47.85;101960.88;4759784;30;19937;-75
2021/01/15 00:24:57;;;;;;;;;;;;;;;7.89;47.47;101966.16;4762782;30;20025;-75
2021/01/15 00:27:24;;;;;;;;;;;;;;;7.88;47.77;101961.75;4757265;30;19951;-75
2021/01/15 00:29:50;;;;;;;;;;;;;;;7.89;47.80;101964.41;4760887;30;20356;-74
2021/01/15 00:32:18;;;;;;;;;;;;;;;7.89;47.71;101969.69;4758509;30;20423;-74
2021/01/15 00:34:45;;;;;;;;;;;;;;;7.92;47.96;101958.28;4762063;30;19930;-75
2021/01/15 00:37:12;;;;;;;;;;;;;;;7.94;47.42;101957.38;4760596;30;20024;-74
2021/01/15 00:39:39;;;;;;;;;;;;;;;8.00;47.71;101960.91;4764174;30;20074;-74
2021/01/15 00:42:09;;;;;;;;;;;;;;;8.05;47.78;101961.78;4767980;30;19929;-75
2021/01/15 00:44:36;;;;;;;;;;;;;;;8.08;47.46;101960.06;4746429;30;19991;-75
2021/01/15 00:47:03;;;;;;;;;;;;;;;8.12;47.16;101967.09;4765095;30;19991;-74
2021/01/15 00:49:31;;;;;;;;;;;;;;;8.14;47.16;101970.63;4766712;30;19929;-74
2021/01/15 00:51:58;;;;;;;;;;;;;;;8.17;47.31;101966.22;4764567;30;20054;-74
2021/01/15 00:54:29;;;;;;;;;;;;;;;8.20;47.42;101969.75;4744049;30;20002;-74
2021/01/15 00:56:59;;;;;;;;;;;;;;;8.21;47.14;101974.16;4756421;30;19941;-74
2021/01/15 00:59:29;;;;;;;;;;;;;;;8.24;47.57;101974.13;4744319;30;19956;-74
2021/01/15 01:02:07;;;;;;;;;;;;;;;8.23;47.61;101979.41;4748212;30;19942;-75
2021/01/15 01:04:37;;;;;;;;;;;;;;;8.23;47.46;101982.91;4765011;30;19952;-74
2021/01/15 01:07:04;;;;;;;;;;;;;;;8.26;47.11;101980.31;4764131;30;19930;-75
2021/01/15 01:09:30;;;;;;;;;;;;;;;8.26;47.17;101987.31;4758182;30;19937;-74
2021/01/15 01:11:57;;;;;;;;;;;;;;;8.23;47.71;101987.31;4754735;30;20372;-74
2021/01/15 01:14:24;;;;;;;;;;;;;;;8.21;47.71;101986.44;4765944;30;20053;-75
2021/01/15 01:16:51;;;;;;;;;;;;;;;8.23;47.75;101987.31;4760039;30;20659;-74
2021/01/15 01:19:18;;;;;;;;;;;;;;;8.22;47.81;101985.56;4764773;30;19929;-75
2021/01/15 01:21:46;;;;;;;;;;;;;;;8.18;47.45;101989.97;4764145;30;19934;-74
2021/01/15 01:24:13;;;;;;;;;;;;;;;8.21;47.68;101989.06;4759260;30;20420;-75
2021/01/15 01:26:39;;;;;;;;;;;;;;;8.20;48.26;101990.84;4739548;30;20318;-75
2021/01/15 01:29:06;;;;;;;;;;;;;;;8.16;47.81;101991.72;4762143;30;20272;-75
2021/01/15 01:31:33;;;;;;;;;;;;;;;8.16;47.96;101988.19;4765088;30;19930;-75
2021/01/15 01:34:00;;;;;;;;;;;;;;;8.12;47.91;101996.09;4765091;30;19940;-75
2021/01/15 01:36:27;;;;;;;;;;;;;;;8.11;48.13;101986.41;4760002;30;20392;-75
2021/01/15 01:38:54;;;;;;;;;;;;;;;8.08;47.95;101990.81;4758781;30;19941;-74
2021/01/15 01:41:21;;;;;;;;;;;;;;;8.07;47.57;101986.41;4758603;30;19972;-75
2021/01/15 01:43:48;;;;;;;;;;;;;;;8.05;47.94;101989.03;4764877;30;19943;-75
2021/01/15 01:46:14;;;;;;;;;;;;;;;8.02;48.10;101988.16;4763150;30;20414;-75
2021/01/15 01:48:41;;;;;;;;;;;;;;;8.00;48.03;101981.97;4765907;30;20338;-75
2021/01/15 01:51:08;;;;;;;;;;;;;;;7.97;48.29;101985.50;4760118;30;19930;-75
2021/01/15 01:53:37;;;;;;;;;;;;;;;7.95;48.05;101982.84;4759138;30;19944;-75
2021/01/15 01:56:06;;;;;;;;;;;;;;;7.93;48.16;101981.97;4761973;30;20751;-75
2021/01/15 01:58:33;;;;;;;;;;;;;;;7.93;47.99;101983.72;4763849;30;19940;-75
2021/01/15 02:01:01;;;;;;;;;;;;;;;7.88;48.36;101989.00;4765064;30;19942;-75
2021/01/15 02:03:28;;;;;;;;;;;;;;;7.87;48.07;101989.84;4762771;30;20338;-75
2021/01/15 02:05:55;;;;;;;;;;;;;;;7.86;48.17;101989.84;4760368;30;20010;-75
2021/01/15 02:08:22;;;;;;;;;;;;;;;7.84;48.17;101988.97;4761001;30;20079;-75
2021/01/15 02:10:57;;;;;;;;;;;;;;;7.78;48.23;101995.97;4761021;30;19983;-74
2021/01/15 02:13:31;;;;;;;;;;;;;;;7.79;48.34;101994.22;4761860;30;19981;-75
2021/01/15 02:16:02;;;;;;;;;;;;;;;7.75;48.74;101995.97;4762862;30;19953;-75
2021/01/15 02:18:31;;;;;;;;;;;;;;;7.74;48.53;101988.06;4759339;30;20025;-75
2021/01/15 02:21:05;;;;;;;;;;;;;;;7.71;48.72;101994.19;4758317;30;19938;-75
2021/01/15 02:23:37;;;;;;;;;;;;;;;7.71;48.49;102007.38;4763457;30;20020;-75
2021/01/15 02:26:41;;;;;;;;;;;;;;;7.70;48.56;101999.47;4764674;30;20384;-75
2021/01/15 02:29:15;;;;;;;;;;;;;;;7.71;48.55;102002.09;4763055;30;20024;-75
2021/01/15 02:32:08;;;;;;;;;;;;;;;7.72;48.64;102003.88;4764884;30;19934;-75
2021/01/15 02:34:56;;;;;;;;;;;;;;;7.73;48.60;101995.06;4759576;30;19934;-75
2021/01/15 02:37:27;;;;;;;;;;;;;;;7.74;48.22;101991.56;4761201;30;19933;-75
2021/01/15 02:40:01;;;;;;;;;;;;;;;7.78;48.51;101995.09;4746011;30;20026;-75
2021/01/15 02:42:30;;;;;;;;;;;;;;;7.80;47.88;101998.59;4767016;30;20048;-75
2021/01/15 02:44:57;;;;;;;;;;;;;;;7.84;48.48;101994.22;4764217;30;20410;-75
2021/01/15 02:47:25;;;;;;;;;;;;;;;7.86;48.14;102001.25;4742055;30;19934;-75
2021/01/15 02:49:54;;;;;;;;;;;;;;;7.88;48.15;101996.91;4757499;30;19933;-75
2021/01/15 02:52:20;;;;;;;;;;;;;;;7.91;47.57;101996.03;4764566;30;19930;-75
2021/01/15 02:54:47;;;;;;;;;;;;;;;7.95;47.67;102003.94;4764352;30;19979;-75
2021/01/15 02:57:14;;;;;;;;;;;;;;;7.96;47.84;101992.53;4759378;30;19945;-75
2021/01/15 02:59:41;;;;;;;;;;;;;;;7.97;48.10;101999.56;4762050;30;19933;-75
2021/01/15 03:02:10;;;;;;;;;;;;;;;8.00;47.77;101995.16;4759238;30;20009;-75
2021/01/15 03:04:42;;;;;;;;;;;;;;;7.98;47.54;102001.34;4740550;30;19965;-75
2021/01/15 03:07:11;;;;;;;;;;;;;;;8.00;47.91;102006.59;4760583;30;19937;-75
2021/01/15 03:09:42;;;;;;;;;;;;;;;8.00;47.87;102008.34;4760554;30;19945;-75
2021/01/15 03:12:09;;;;;;;;;;;;;;;7.99;48.35;102010.09;4742785;30;19949;-75
2021/01/15 03:14:37;;;;;;;;;;;;;;;7.98;47.53;102016.25;4765146;30;19972;-75
2021/01/15 03:17:05;;;;;;;;;;;;;;;7.97;48.22;102018.00;4756227;30;19938;-75
2021/01/15 03:19:32;;;;;;;;;;;;;;;7.94;48.04;102020.59;4764484;30;19929;-75
2021/01/15 03:22:02;;;;;;;;;;;;;;;7.94;48.13;102030.28;4740781;30;19930;-75
2021/01/15 03:24:29;;;;;;;;;;;;;;;7.94;48.17;102030.28;4764997;30;19933;-75
2021/01/15 03:26:56;;;;;;;;;;;;;;;7.92;47.77;102032.91;4764904;30;19973;-76
2021/01/15 03:29:23;;;;;;;;;;;;;;;7.89;48.13;102032.91;4764047;30;19999;-75
2021/01/15 03:31:50;;;;;;;;;;;;;;;7.88;47.65;102032.88;4756724;30;20141;-76
2021/01/15 03:34:17;;;;;;;;;;;;;;;7.86;48.05;102035.53;4761995;30;19990;-76
2021/01/15 03:36:43;;;;;;;;;;;;;;;7.86;48.21;102037.28;4763690;30;20297;-75
2021/01/15 03:39:10;;;;;;;;;;;;;;;7.82;48.08;102031.97;4764811;30;19929;-75
2021/01/15 03:41:38;;;;;;;;;;;;;;;7.81;48.10;102031.97;4769377;30;19930;-75
2021/01/15 03:44:05;;;;;;;;;;;;;;;7.77;48.15;102033.75;4760046;30;19973;-75
2021/01/15 03:46:31;;;;;;;;;;;;;;;7.74;48.16;102033.72;4759630;30;19973;-75
2021/01/15 03:48:58;;;;;;;;;;;;;;;7.72;47.74;102040.75;4767839;30;20040;-75
2021/01/15 03:51:25;;;;;;;;;;;;;;;7.71;48.49;102036.34;4766782;30;19937;-75
2021/01/15 03:53:52;;;;;;;;;;;;;;;7.68;48.64;102032.78;4762919;30;19967;-75
2021/01/15 03:56:19;;;;;;;;;;;;;;;7.65;47.97;102047.69;4768317;30;20695;-75
2021/01/15 03:58:46;;;;;;;;;;;;;;;7.63;48.22;102043.31;4760334;30;19995;-76
2021/01/15 04:01:13;;;;;;;;;;;;;;;7.61;48.16;102050.31;4749952;30;19934;-75
2021/01/15 04:03:40;;;;;;;;;;;;;;;7.59;47.92;102044.16;4763558;30;20257;-75
2021/01/15 04:06:07;;;;;;;;;;;;;;;7.55;48.05;102050.28;4745631;30;20306;-75
2021/01/15 04:08:34;;;;;;;;;;;;;;;7.50;48.43;102049.38;4765335;30;20029;-75
2021/01/15 04:11:01;;;;;;;;;;;;;;;7.46;48.21;102059.03;4767360;30;20048;-75
2021/01/15 04:13:28;;;;;;;;;;;;;;;7.46;48.18;102056.38;4756952;30;19937;-76
2021/01/15 04:15:56;;;;;;;;;;;;;;;7.41;48.24;102048.44;4765200;30;19929;-75
2021/01/15 04:18:23;;;;;;;;;;;;;;;7.36;48.28;102055.44;4764114;30;20007;-75
2021/01/15 04:20:49;;;;;;;;;;;;;;;7.32;48.70;102058.91;4759196;30;19934;-75
2021/01/15 04:23:16;;;;;;;;;;;;;;;7.29;48.53;102059.78;4765897;30;20261;-75
2021/01/15 04:25:43;;;;;;;;;;;;;;;7.27;48.82;102060.63;4759437;30;20028;-75
2021/01/15 04:28:09;;;;;;;;;;;;;;;7.26;48.33;102061.50;4756406;30;19942;-75
2021/01/15 04:30:37;;;;;;;;;;;;;;;7.25;48.63;102055.34;4765862;30;20568;-75
2021/01/15 04:33:05;;;;;;;;;;;;;;;7.24;48.86;102055.34;4762297;30;19955;-76
2021/01/15 04:35:31;;;;;;;;;;;;;;;7.25;48.61;102065.00;4766695;30;20028;-75
2021/01/15 04:37:59;;;;;;;;;;;;;;;7.24;48.50;102063.25;4745149;30;19941;-75
2021/01/15 04:40:27;;;;;;;;;;;;;;;7.25;48.59;102055.34;4743373;30;20064;-76
2021/01/15 04:42:54;;;;;;;;;;;;;;;7.26;48.46;102057.13;4755312;30;19957;-75
2021/01/15 04:45:21;;;;;;;;;;;;;;;7.27;48.34;102058.88;4763987;30;20015;-75
2021/01/15 04:47:48;;;;;;;;;;;;;;;7.28;48.49;102062.41;4764857;30;20269;-75
2021/01/15 04:50:17;;;;;;;;;;;;;;;7.29;48.05;102062.41;4766485;30;19942;-75
2021/01/15 04:52:46;;;;;;;;;;;;;;;7.32;48.16;102062.41;4739916;30;19967;-75
2021/01/15 04:55:21;;;;;;;;;;;;;;;7.34;47.64;102066.81;4757796;30;19930;-75
2021/01/15 04:57:49;;;;;;;;;;;;;;;7.32;48.11;102065.06;4762758;30;19938;-75
2021/01/15 05:00:18;;;;;;;;;;;;;;;7.36;47.94;102067.72;4761741;30;19938;-75
2021/01/15 05:02:46;;;;;;;;;;;;;;;7.39;47.98;102062.47;4766003;30;19952;-75
2021/01/15 05:05:25;;;;;;;;;;;;;;;7.40;47.58;102070.38;4763237;30;19930;-76
2021/01/15 05:08:07;;;;;;;;;;;;;;;7.42;47.83;102062.47;4758297;30;19937;-75
2021/01/15 05:10:36;;;;;;;;;;;;;;;7.43;47.94;102073.03;4752443;30;19940;-75
2021/01/15 05:13:05;;;;;;;;;;;;;;;7.47;47.63;102073.94;4763111;30;20360;-75
2021/01/15 05:15:32;;;;;;;;;;;;;;;7.52;47.20;102076.59;4766246;30;19929;-75
2021/01/15 05:17:59;;;;;;;;;;;;;;;7.53;47.61;102070.47;4761810;30;19937;-75
2021/01/15 05:20:29;;;;;;;;;;;;;;;7.54;46.99;102073.13;4765607;30;19934;-75
2021/01/15 05:22:57;;;;;;;;;;;;;;;7.53;47.41;102070.47;4760811;30;20415;-76
2021/01/15 05:25:24;;;;;;;;;;;;;;;7.52;47.29;102079.25;4760063;30;19937;-75
2021/01/15 05:27:52;;;;;;;;;;;;;;;7.54;46.92;102081.00;4762146;30;19987;-75
2021/01/15 05:30:21;;;;;;;;;;;;;;;7.52;47.27;102079.25;4763730;30;20312;-75
2021/01/15 05:32:49;;;;;;;;;;;;;;;7.50;47.16;102080.97;4759954;30;22395;-75
2021/01/15 05:35:16;;;;;;;;;;;;;;;7.46;47.58;102088.84;4760818;30;20015;-75
2021/01/15 05:37:54;;;;;;;;;;;;;;;7.45;47.43;102092.34;4739132;30;20295;-75
2021/01/15 05:40:34;;;;;;;;;;;;;;;7.41;47.23;102092.34;4759961;30;19934;-75
2021/01/15 05:43:01;;;;;;;;;;;;;;;7.41;47.42;102097.59;4764939;30;19934;-75
2021/01/15 05:45:28;;;;;;;;;;;;;;;7.38;46.84;102106.34;4744690;30;20408;-75
2021/01/15 05:47:55;;;;;;;;;;;;;;;7.36;47.24;102096.69;4764604;30;20311;-74
2021/01/15 05:50:22;;;;;;;;;;;;;;;7.34;47.35;102103.69;4732569;30;20437;-75
2021/01/15 05:52:56;;;;;;;;;;;;;;;7.28;47.43;102105.38;4759271;30;20033;-75
2021/01/15 05:55:24;;;;;;;;;;;;;;;7.25;47.22;102113.28;4763816;30;19944;-73
2021/01/15 05:57:51;;;;;;;;;;;;;;;7.22;47.14;102107.09;4762611;30;19983;-74
2021/01/15 06:00:33;;;;;;;;;;;;;;;7.21;47.14;102114.13;4756502;30;19938;-73
2021/01/15 06:03:05;;;;;;;;;;;;;;;7.15;47.21;102112.28;4765292;30;19934;-73
2021/01/15 06:05:32;;;;;;;;;;;;;;;7.13;46.99;102115.78;4759462;30;19937;-75
2021/01/15 06:08:00;;;;;;;;;;;;;;;7.11;47.21;102110.50;4753691;30;19961;-74
2021/01/15 06:10:28;;;;;;;;;;;;;;;7.06;46.97;102116.59;4753233;30;20567;-73
2021/01/15 06:12:55;;;;;;;;;;;;;;;7.01;47.23;102115.69;4754948;30;19941;-73
2021/01/15 06:15:21;;;;;;;;;;;;;;;7.01;46.94;102120.94;4761556;30;19934;-73
2021/01/15 06:17:51;;;;;;;;;;;;;;;6.96;47.06;102116.53;4758612;30;21535;-73
2021/01/15 06:20:19;;;;;;;;;;;;;;;6.92;47.08;102119.09;4760099;30;20021;-73
2021/01/15 06:22:48;;;;;;;;;;;;;;;6.91;46.75;102130.50;4764016;30;20304;-73
2021/01/15 06:25:23;;;;;;;;;;;;;;;6.86;47.30;102130.44;4742609;30;19930;-73
2021/01/15 06:27:55;;;;;;;;;;;;;;;6.89;46.98;102133.09;4746709;30;19938;-73
2021/01/15 06:30:23;;;;;;;;;;;;;;;6.87;47.24;102134.84;4757801;30;20356;-74
2021/01/15 06:32:51;;;;;;;;;;;;;;;6.89;46.92;102140.13;4757334;30;19930;-73
2021/01/15 06:35:25;;;;;;;;;;;;;;;6.88;47.02;102134.00;4735341;30;19938;-73
2021/01/15 06:37:59;;;;;;;;;;;;;;;6.88;47.23;102143.63;4757920;30;20026;-72
2021/01/15 06:40:31;;;;;;;;;;;;;;;6.90;46.70;102148.03;4768800;30;19941;-73
2021/01/15 06:42:58;;;;;;;;;;;;;;;6.92;46.81;102148.94;4766092;30;19930;-73
2021/01/15 06:45:26;;;;;;;;;;;;;;;6.91;46.92;102149.78;4761041;30;20407;-73
2021/01/15 06:47:54;;;;;;;;;;;;;;;6.94;47.13;102151.59;4753495;30;20032;-73
2021/01/15 06:50:21;;;;;;;;;;;;;;;6.96;46.36;102156.00;4755300;30;19987;-73
2021/01/15 06:52:49;;;;;;;;;;;;;;;7.02;46.46;102162.19;4760571;30;19930;-72
2021/01/15 06:55:17;;;;;;;;;;;;;;;7.03;46.58;102166.59;4764028;30;19999;-73
2021/01/15 06:57:50;;;;;;;;;;;;;;;7.05;46.73;102173.63;4761943;30;19940;-73
2021/01/15 07:00:20;;;;;;;;;;;;;;;7.09;46.71;102183.31;4743246;30;19957;-74
2021/01/15 07:03:06;;;;;;;;;;;;;;;7.11;46.59;102176.31;4757696;30;20437;-73
2021/01/15 07:05:43;;;;;;;;;;;;;;;7.15;45.86;102182.47;4765631;30;19934;-73
2021/01/15 07:08:11;;;;;;;;;;;;;;;7.15;45.94;102180.72;4763063;30;19934;-73
2021/01/15 07:10:38;;;;;;;;;;;;;;;7.19;45.88;102186.91;4766438;30;19941;-73
2021/01/15 07:13:08;;;;;;;;;;;;;;;7.18;46.03;102182.50;4762439;30;19934;-73
2021/01/15 07:15:36;;;;;;;;;;;;;;;7.25;46.16;102192.25;4762710;30;20277;-73
2021/01/15 07:18:07;;;;;;;;;;;;;;;7.25;45.95;102194.88;4760220;30;19933;-73
2021/01/15 07:20:43;;;;;;;;;;;;;;;7.29;45.84;102191.41;4766364;30;20020;-73
2021/01/15 07:23:13;;;;;;;;;;;;;;;7.33;45.90;102202.84;4768439;30;19933;-73
2021/01/15 07:25:47;;;;;;;;;;;;;;;7.31;45.66;102197.56;4768056;30;19995;-73
2021/01/15 07:28:15;;;;;;;;;;;;;;;7.36;45.38;102199.34;4766905;30;19964;-72
2021/01/15 07:30:42;;;;;;;;;;;;;;;7.32;45.74;102204.56;4753804;30;20039;-73
2021/01/15 07:33:11;;;;;;;;;;;;;;;7.36;45.31;102204.63;4762170;30;19954;-73
2021/01/15 07:35:38;;;;;;;;;;;;;;;7.36;45.54;102204.63;4764717;30;19937;-73
2021/01/15 07:38:08;;;;;;;;;;;;;;;7.32;45.35;102198.44;4761984;30;20028;-73
2021/01/15 07:40:36;;;;;;;;;;;;;;;7.32;45.28;102194.03;4761376;30;19942;-73
2021/01/15 07:43:03;;;;;;;;;;;;;;;7.31;45.37;102200.19;4761925;30;19970;-73
2021/01/15 07:45:51;;;;;;;;;;;;;;;7.30;45.45;102208.06;4741022;30;19957;-73
2021/01/15 07:48:19;;;;;;;;;;;;;;;7.30;45.34;102205.44;4766861;30;19940;-73
2021/01/15 07:50:48;;;;;;;;;;;;;;;7.31;45.12;102201.94;4763111;30;19938;-73
2021/01/15 07:53:26;;;;;;;;;;;;;;;7.29;45.01;102206.31;4763112;30;20000;-73
2021/01/15 07:55:54;;;;;;;;;;;;;;;7.30;45.20;102211.59;4766191;30;20384;-73
2021/01/15 07:58:22;;;;;;;;;;;;;;;7.30;45.51;102205.44;4762360;30;19930;-73
2021/01/15 08:00:50;;;;;;;;;;;;;;;7.30;45.23;102208.06;4761426;30;19938;-73
2021/01/15 08:03:17;;;;;;;;;;;;;;;7.29;45.07;102214.22;4768135;30;19929;-73
2021/01/15 08:05:45;;;;;;;;;;;;;;;7.30;44.83;102214.22;4767618;30;20296;-73
2021/01/15 08:08:13;;;;;;;;;;;;;;;7.28;45.14;102217.72;4763269;30;19930;-73
2021/01/15 08:10:48;;;;;;;;;;;;;;;7.30;44.89;102214.22;4766256;30;19940;-73
2021/01/15 08:13:18;;;;;;;;;;;;;;;7.31;44.92;102213.38;4758009;30;19933;-73
2021/01/15 08:15:45;;;;;;;;;;;;;;;7.34;44.55;102224.78;4765299;30;20036;-73
2021/01/15 08:18:12;;;;;;;;;;;;;;;7.35;44.37;102222.16;4764646;30;19962;-73
2021/01/15 08:20:39;;;;;;;;;;;;;;;7.40;44.42;102220.44;4765881;30;19930;-73
2021/01/15 08:23:07;;;;;;;;;;;;;;;7.46;43.97;102212.63;4767401;30;20015;-73
2021/01/15 08:25:33;;;;;;;;;;;;;;;7.52;43.88;102217.03;4761441;30;19987;-72
2021/01/15 08:28:06;;;;;;;;;;;;;;;7.59;44.15;102218.88;4761793;30;19953;-73
2021/01/15 08:30:33;;;;;;;;;;;;;;;7.69;43.64;102219.81;4765364;30;19938;-73
2021/01/15 08:32:59;;;;;;;;;;;;;;;7.88;43.08;102212.06;4764499;30;19991;-73
2021/01/15 08:35:27;;;;;;;;;;;;;;;8.05;42.98;102215.72;4760419;30;19934;-73
2021/01/15 08:38:01;;;;;;;;;;;;;;;8.28;42.36;102214.97;4762347;30;19983;-73
2021/01/15 08:40:30;;;;;;;;;;;;;;;8.45;41.83;102223.84;4762913;30;19987;-74
2021/01/15 08:42:57;;;;;;;;;;;;;;;8.69;41.99;102221.34;4762058;30;19969;-74
2021/01/15 08:45:26;;;;;;;;;;;;;;;8.99;41.26;102227.59;4765258;30;19941;-73
2021/01/15 08:47:54;;;;;;;;;;;;;;;9.26;40.69;102217.09;4758714;30;19934;-73
2021/01/15 08:50:22;;;;;;;;;;;;;;;9.47;40.38;102229.44;4764089;30;20284;-73
2021/01/15 08:52:49;;;;;;;;;;;;;;;9.72;39.61;102239.16;4759799;30;20037;-73
2021/01/15 08:55:17;;;;;;;;;;;;;;;9.89;39.70;102228.56;4760763;30;20354;-73
2021/01/15 08:57:45;;;;;;;;;;;;;;;10.03;39.33;102233.84;4763837;30;19950;-74
2021/01/15 09:00:13;;;;;;;;;;;;;;;10.21;39.33;102230.28;4764490;30;19930;-73
2021/01/15 09:02:40;;;;;;;;;;;;;;;10.35;38.95;102228.53;4766101;30;19956;-73
2021/01/15 09:05:09;;;;;;;;;;;;;;;10.53;38.83;102230.25;4766426;30;20075;-73
2021/01/15 09:07:42;;;;;;;;;;;;;;;10.70;38.30;102230.13;4761468;30;19937;-74
2021/01/15 09:10:11;;;;;;;;;;;;;;;10.82;38.29;102228.34;4758438;30;20334;-74
2021/01/15 09:12:42;;;;;;;;;;;;;;;10.98;38.28;102239.72;4765994;30;19937;-74
2021/01/15 09:15:18;;;;;;;;;;;;;;;11.18;38.10;102240.50;4762581;30;20004;-74
2021/01/15 09:17:46;;;;;;;;;;;;;;;11.37;37.87;102243.03;4750038;30;19980;-74
2021/01/15 09:20:14;;;;;;;;;;;;;;;11.55;37.61;102242.91;4764456;30;19941;-74
2021/01/15 09:22:40;;;;;;;;;;;;;;;11.74;37.35;102245.41;4758801;30;19934;-75
2021/01/15 09:25:08;;;;;;;;;;;;;;;11.90;37.09;102251.47;4759629;30;19934;-74
2021/01/15 09:27:34;;;;;;;;;;;;;;;12.12;36.91;102250.41;4766174;30;20029;-74
2021/01/15 09:30:03;;;;;;;;;;;;;;;12.34;36.32;102249.28;4761454;30;20458;-74
2021/01/15 09:32:30;;;;;;;;;;;;;;;13.53;34.30;102237.13;4757832;30;20340;-74
2021/01/15 09:34:57;;;;;;;;;;;;;;;14.32;32.41;102230.41;4763055;30;20477;-74
2021/01/15 09:37:25;;;;;;;;;;;;;;;15.32;30.68;102228.28;4756683;30;19956;-74
2021/01/15 09:39:51;;;;;;;;;;;;;;;15.81;29.72;102220.00;4767182;30;20457;-75
2021/01/15 09:42:18;;;;;;;;;;;;;;;16.33;28.92;102215.06;4767526;30;20562;-75
2021/01/15 09:44:45;;;;;;;;;;;;;;;16.92;27.94;102216.91;4760285;30;19930;-75
2021/01/15 09:47:12;;;;;;;;;;;;;;;16.81;28.05;102219.91;4761529;30;20415;-75
2021/01/15 09:49:39;;;;;;;;;;;;;;;16.05;29.34;102243.38;4759401;30;19955;-74
2021/01/15 09:52:07;;;;;;;;;;;;;;;15.14;30.94;102256.25;4759441;30;19950;-75
2021/01/15 09:54:35;;;;;;;;;;;;;;;14.35;32.59;102263.16;4766199;30;19969;-75
2021/01/15 09:57:02;;;;;;;;;;;;;;;14.40;32.71;102261.28;4763649;30;19930;-74
2021/01/15 09:59:28;;;;;;;;;;;;;;;14.40;32.50;102258.63;4765414;30;19983;-74
2021/01/15 10:01:55;;;;;;;;;;;;;;;14.52;32.51;102254.84;4765118;30;20366;-75
2021/01/15 10:04:23;;;;;;;;;;;;;;;14.63;32.66;102248.44;4757834;30;19934;-75
2021/01/15 10:06:50;;;;;;;;;;;;;;;14.22;33.13;102256.31;4756352;30;20368;-76
2021/01/15 10:09:17;;;;;;;;;;;;;;;13.90;33.83;102263.09;4764359;30;19932;-75
2021/01/15 10:11:45;;;;;;;;;;;;;;;13.47;34.93;102269.97;4762336;30;20040;-75
2021/01/15 10:14:13;;;;;;;;;;;;;;;13.32;34.98;102256.91;4761708;30;19937;-75
2021/01/15 10:16:41;;;;;;;;;;;;;;;13.47;34.75;102267.31;4764921;30;20408;-75
2021/01/15 10:19:08;;;;;;;;;;;;;;;13.51;34.33;102269.03;4759660;30;20421;-75
2021/01/15 10:21:38;;;;;;;;;;;;;;;12.98;35.54;102276.84;4747147;30;19929;-75
2021/01/15 10:24:07;;;;;;;;;;;;;;;13.10;35.49;102270.50;4761594;30;19945;-75
2021/01/15 10:26:34;;;;;;;;;;;;;;;13.12;34.93;102263.41;4765346;30;20003;-75
2021/01/15 10:29:03;;;;;;;;;;;;;;;13.15;34.88;102275.75;4765783;30;20017;-75
2021/01/15 10:31:30;;;;;;;;;;;;;;;13.05;35.13;102281.19;4758134;30;19946;-75
2021/01/15 10:33:58;;;;;;;;;;;;;;;13.04;35.28;102287.41;4760205;30;20358;-75
2021/01/15 10:36:25;;;;;;;;;;;;;;;12.82;35.20;102288.56;4764123;30;19938;-75
2021/01/15 10:38:52;;;;;;;;;;;;;;;13.08;34.99;102281.16;4743136;30;19934;-75
2021/01/15 10:41:28;;;;;;;;;;;;;;;13.52;34.17;102281.44;4748074;30;19937;-75
2021/01/15 10:43:55;;;;;;;;;;;;;;;14.11;32.51;102284.00;4760392;30;20492;-75
2021/01/15 10:46:27;;;;;;;;;;;;;;;14.20;32.54;102282.09;4758873;30;19934;-75
2021/01/15 10:48:54;;;;;;;;;;;;;;;13.85;32.83;102288.91;4760109;30;19930;-75
2021/01/15 10:51:21;;;;;;;;;;;;;;;12.81;34.81;102287.69;4765132;30;19967;-74
2021/01/15 10:53:48;;;;;;;;;;;;;;;13.43;33.95;102285.13;4765591;30;19934;-75
2021/01/15 10:56:14;;;;;;;;;;;;;;;12.73;35.13;102300.19;4763709;30;19971;-73
2021/01/15 10:58:42;;;;;;;;;;;;;;;12.69;35.22;102299.34;4765031;30;20348;-75
2021/01/15 11:01:09;;;;;;;;;;;;;;;12.92;34.84;102295.50;4760081;30;19950;-75
2021/01/15 11:03:36;;;;;;;;;;;;;;;12.30;36.03;102296.19;4761392;30;19944;-75
2021/01/15 11:06:03;;;;;;;;;;;;;;;12.20;36.26;102297.19;4762879;30;19937;-76
2021/01/15 11:08:31;;;;;;;;;;;;;;;12.73;35.42;102290.44;4761295;30;20034;-76
2021/01/15 11:10:58;;;;;;;;;;;;;;;13.10;34.45;102297.06;4766118;30;19983;-76
2021/01/15 11:13:25;;;;;;;;;;;;;;;13.21;34.19;102286.28;4755568;30;19934;-75
2021/01/15 11:15:52;;;;;;;;;;;;;;;13.27;34.04;102288.84;4739410;30;19941;-76
2021/01/15 11:18:19;;;;;;;;;;;;;;;13.63;33.31;102280.38;4765270;30;19941;-75
2021/01/15 11:20:46;;;;;;;;;;;;;;;13.16;34.25;102294.34;4762051;30;20421;-75
2021/01/15 11:23:14;;;;;;;;;;;;;;;13.41;33.61;102289.56;4762959;30;19934;-75
2021/01/15 11:25:44;;;;;;;;;;;;;;;13.98;32.75;102290.44;4765589;30;19941;-75
2021/01/15 11:28:11;;;;;;;;;;;;;;;13.56;33.55;102275.16;4757154;30;19941;-75
2021/01/15 11:30:37;;;;;;;;;;;;;;;12.71;35.05;102272.75;4756858;30;19940;-75
2021/01/15 11:33:05;;;;;;;;;;;;;;;12.26;36.10;102276.78;4762360;30;19933;-75
2021/01/15 11:35:46;;;;;;;;;;;;;;;12.46;35.98;102273.03;4758090;30;19942;-74
2021/01/15 11:38:13;;;;;;;;;;;;;;;12.36;36.03;102274.06;4761473;30;20434;-75
2021/01/15 11:40:40;;;;;;;;;;;;;;;12.53;35.80;102277.38;4743447;30;20019;-74
2021/01/15 11:43:07;;;;;;;;;;;;;;;13.37;34.09;102269.25;4756217;30;19934;-75
2021/01/15 11:45:33;;;;;;;;;;;;;;;13.48;33.87;102271.75;4757809;30;20407;-75
2021/01/15 11:48:00;;;;;;;;;;;;;;;14.49;32.14;102270.88;4760157;30;19999;-75
2021/01/15 11:50:28;;;;;;;;;;;;;;;14.77;31.22;102265.03;4766649;30;19944;-75
2021/01/15 11:52:57;;;;;;;;;;;;;;;14.50;31.28;102271.75;4761996;30;19980;-75
2021/01/15 11:55:24;;;;;;;;;;;;;;;13.92;32.83;102269.25;4763174;30;20063;-74
2021/01/15 11:57:51;;;;;;;;;;;;;;;13.64;33.26;102269.72;4761893;30;19938;-74
2021/01/15 12:00:18;;;;;;;;;;;;;;;13.43;33.85;102265.63;4768851;30;19941;-74
2021/01/15 12:02:45;;;;;;;;;;;;;;;13.84;33.20;102263.19;4766404;30;19933;-76
2021/01/15 12:05:12;;;;;;;;;;;;;;;14.06;32.86;102258.38;4766212;30;19929;-75
2021/01/15 12:07:40;;;;;;;;;;;;;;;14.05;32.75;102262.84;4766782;30;20396;-75
2021/01/15 12:10:08;;;;;;;;;;;;;;;14.13;32.93;102265.38;4759533;30;19934;-75
2021/01/15 12:12:37;;;;;;;;;;;;;;;14.17;32.93;102267.06;4760431;30;20012;-76
2021/01/15 12:15:05;;;;;;;;;;;;;;;14.48;32.74;102250.50;4759037;30;19972;-73
2021/01/15 12:17:32;;;;;;;;;;;;;;;14.52;32.37;102257.50;4773076;30;19983;-75
2021/01/15 12:19:59;;;;;;;;;;;;;;;14.22;33.21;102262.53;4755598;30;19940;-74
2021/01/15 12:22:26;;;;;;;;;;;;;;;14.19;33.21;102253.72;4760303;30;20029;-75
2021/01/15 12:24:54;;;;;;;;;;;;;;;14.38;33.16;102257.78;4762537;30;19944;-74
2021/01/15 12:27:21;;;;;;;;;;;;;;;14.41;33.15;102263.03;4758833;30;19944;-74
2021/01/15 12:29:47;;;;;;;;;;;;;;;14.65;33.00;102254.66;4762443;30;19929;-73
2021/01/15 12:32:14;;;;;;;;;;;;;;;14.91;32.42;102257.63;4767864;30;20357;-73
2021/01/15 12:34:41;;;;;;;;;;;;;;;16.09;30.49;102257.53;4766307;30;19971;-75
2021/01/15 12:37:08;;;;;;;;;;;;;;;16.14;30.64;102254.72;4763125;30;20307;-76
2021/01/15 12:39:35;;;;;;;;;;;;;;;16.03;31.01;102255.88;4761306;30;19934;-73
2021/01/15 12:42:03;;;;;;;;;;;;;;;16.21;30.70;102253.66;4770790;30;19960;-74
2021/01/15 12:44:29;;;;;;;;;;;;;;;16.18;30.96;102251.06;4764922;30;20389;-74
2021/01/15 12:46:56;;;;;;;;;;;;;;;16.40;30.44;102249.56;4764865;30;19929;-74
2021/01/15 12:49:23;;;;;;;;;;;;;;;16.55;30.42;102255.41;4762618;30;20375;-74